BAW231 LPPT-EGLL
Flight info
| Callsign | BAW231 |
|---|---|
| Flight time | 1h 57m |
| Altitude | 38000 |
| Route | IXIDA DCT PINEK DCT KORUL DCT FEJAC DCT JSY DCT REVTU/N0487F340 UP87 ROXOG |
| Aircraft | A35K/H-SDE2E3GHIJ3J4J5LM1ORWXY/LB1D1 |
Departure
| Time | 2026-05-06 11:50 |
|---|---|
| Airport | Lisbon Humberto Delgado Airport (LPPT) |
Arrival
| Time | 2026-05-06 13:47 |
|---|---|
| Airport | London Heathrow Airport (EGLL) |
| Time | Latitude | Longitude | Altitude | Speed | Heading |
|---|---|---|---|---|---|
| 2026-05-06 11:24 | 38.76829 | -9.13557 | 353 ft | 0 kts | 256° |
| 2026-05-06 11:40 | 38.76831 | -9.13546 | 362 ft | 3 kts | 257° |
| 2026-05-06 11:41 | 38.76836 | -9.13521 | 361 ft | 2 kts | 257° |
| 2026-05-06 11:41 | 38.76839 | -9.13503 | 358 ft | 3 kts | 274° |
| 2026-05-06 11:41 | 38.76834 | -9.13483 | 361 ft | 3 kts | 323° |
| 2026-05-06 11:41 | 38.76816 | -9.13472 | 362 ft | 3 kts | 345° |
| 2026-05-06 11:42 | 38.76800 | -9.13466 | 359 ft | 1 kts | 348° |
| 2026-05-06 11:42 | 38.76794 | -9.13465 | 357 ft | 0 kts | 348° |
| 2026-05-06 11:45 | 38.76796 | -9.13465 | 358 ft | 1 kts | 348° |
| 2026-05-06 11:45 | 38.76823 | -9.13473 | 363 ft | 7 kts | 348° |
| 2026-05-06 11:45 | 38.76909 | -9.13498 | 359 ft | 12 kts | 347° |
| 2026-05-06 11:46 | 38.76972 | -9.13516 | 361 ft | 15 kts | 347° |
| 2026-05-06 11:46 | 38.77070 | -9.13514 | 363 ft | 10 kts | 39° |
| 2026-05-06 11:46 | 38.77131 | -9.13462 | 356 ft | 10 kts | 6° |
| 2026-05-06 11:46 | 38.77211 | -9.13475 | 353 ft | 13 kts | 348° |
| 2026-05-06 11:47 | 38.77280 | -9.13550 | 362 ft | 15 kts | 285° |
| 2026-05-06 11:47 | 38.77266 | -9.13693 | 358 ft | 18 kts | 259° |
| 2026-05-06 11:47 | 38.77213 | -9.13850 | 360 ft | 21 kts | 217° |
| 2026-05-06 11:47 | 38.77070 | -9.13933 | 359 ft | 24 kts | 199° |
| 2026-05-06 11:48 | 38.76900 | -9.14022 | 358 ft | 28 kts | 203° |
| 2026-05-06 11:48 | 38.76714 | -9.14122 | 359 ft | 20 kts | 203° |
| 2026-05-06 11:48 | 38.76612 | -9.14193 | 359 ft | 6 kts | 232° |
| 2026-05-06 11:48 | 38.76612 | -9.14194 | 359 ft | 0 kts | 239° |
| 2026-05-06 11:49 | 38.76608 | -9.14204 | 356 ft | 4 kts | 246° |
| 2026-05-06 11:49 | 38.76607 | -9.14266 | 351 ft | 10 kts | 280° |
| 2026-05-06 11:49 | 38.76648 | -9.14360 | 351 ft | 11 kts | 335° |
| 2026-05-06 11:49 | 38.76718 | -9.14349 | 350 ft | 11 kts | 20° |
| 2026-05-06 11:50 | 38.76818 | -9.14297 | 357 ft | 29 kts | 22° |
| 2026-05-06 11:50 | 38.77234 | -9.14075 | 360 ft | 109 kts | 22° |
| 2026-05-06 11:50 | 38.78195 | -9.13554 | 536 ft | 171 kts | 18° |
| 2026-05-06 11:50 | 38.79248 | -9.12900 | 1615 ft | 170 kts | 27° |
| 2026-05-06 11:51 | 38.80309 | -9.12037 | 2106 ft | 200 kts | 28° |
| 2026-05-06 11:51 | 38.81591 | -9.11065 | 2600 ft | 220 kts | 25° |
| 2026-05-06 11:51 | 38.82948 | -9.10110 | 3561 ft | 226 kts | 28° |
| 2026-05-06 11:51 | 38.84372 | -9.09101 | 4320 ft | 239 kts | 26° |
| 2026-05-06 11:52 | 38.85874 | -9.08075 | 5112 ft | 249 kts | 26° |
| 2026-05-06 11:52 | 38.87417 | -9.07012 | 6010 ft | 255 kts | 26° |
| 2026-05-06 11:52 | 38.89003 | -9.05903 | 6807 ft | 263 kts | 29° |
| 2026-05-06 11:52 | 38.90490 | -9.04497 | 7670 ft | 269 kts | 39° |
| 2026-05-06 11:53 | 38.91909 | -9.02882 | 8475 ft | 277 kts | 41° |
| 2026-05-06 11:53 | 38.93345 | -9.01199 | 9324 ft | 283 kts | 41° |
| 2026-05-06 11:53 | 38.94817 | -8.99471 | 10149 ft | 290 kts | 41° |
| 2026-05-06 11:53 | 38.96350 | -8.97679 | 10639 ft | 308 kts | 41° |
| 2026-05-06 11:54 | 38.97987 | -8.95765 | 11014 ft | 328 kts | 41° |
| 2026-05-06 11:54 | 38.99703 | -8.93752 | 11406 ft | 344 kts | 41° |
| 2026-05-06 11:54 | 39.01494 | -8.91648 | 12012 ft | 352 kts | 41° |
| 2026-05-06 11:54 | 39.03326 | -8.89497 | 12698 ft | 358 kts | 41° |
| 2026-05-06 11:55 | 39.05180 | -8.87324 | 13374 ft | 364 kts | 41° |
| 2026-05-06 11:55 | 39.07075 | -8.85104 | 13969 ft | 371 kts | 40° |
| 2026-05-06 11:55 | 39.08989 | -8.82863 | 14599 ft | 374 kts | 41° |
| 2026-05-06 11:55 | 39.10934 | -8.80581 | 15182 ft | 380 kts | 40° |
| 2026-05-06 11:56 | 39.12870 | -8.78308 | 15850 ft | 382 kts | 40° |
| 2026-05-06 11:56 | 39.14848 | -8.75984 | 16458 ft | 387 kts | 40° |
| 2026-05-06 11:56 | 39.16805 | -8.73592 | 17113 ft | 391 kts | 44° |
| 2026-05-06 11:56 | 39.18663 | -8.70995 | 17683 ft | 397 kts | 46° |
| 2026-05-06 11:57 | 39.20501 | -8.68307 | 18243 ft | 402 kts | 47° |
| 2026-05-06 11:57 | 39.22358 | -8.65578 | 18766 ft | 406 kts | 47° |
| 2026-05-06 11:57 | 39.24404 | -8.63077 | 19275 ft | 407 kts | 36° |
| 2026-05-06 11:57 | 39.26843 | -8.61264 | 19803 ft | 406 kts | 20° |
| 2026-05-06 11:58 | 39.29522 | -8.60064 | 20323 ft | 407 kts | 14° |
| 2026-05-06 11:58 | 39.32279 | -8.59147 | 20830 ft | 410 kts | 11° |
| 2026-05-06 11:58 | 39.35042 | -8.58394 | 21338 ft | 412 kts | 9° |
| 2026-05-06 11:58 | 39.37868 | -8.57686 | 21867 ft | 415 kts | 8° |
| 2026-05-06 11:59 | 39.40718 | -8.56976 | 22366 ft | 419 kts | 9° |
| 2026-05-06 11:59 | 39.43589 | -8.56238 | 22878 ft | 422 kts | 9° |
| 2026-05-06 11:59 | 39.46483 | -8.55467 | 23379 ft | 426 kts | 9° |
| 2026-05-06 11:59 | 39.49400 | -8.54668 | 23820 ft | 429 kts | 9° |
| 2026-05-06 12:00 | 39.52336 | -8.53847 | 24250 ft | 432 kts | 9° |
| 2026-05-06 12:00 | 39.55287 | -8.53018 | 24693 ft | 435 kts | 9° |
| 2026-05-06 12:00 | 39.58255 | -8.52183 | 25147 ft | 438 kts | 9° |
| 2026-05-06 12:00 | 39.61238 | -8.51343 | 25597 ft | 440 kts | 10° |
| 2026-05-06 12:01 | 39.64243 | -8.50498 | 26093 ft | 443 kts | 10° |
| 2026-05-06 12:01 | 39.67232 | -8.49657 | 26581 ft | 446 kts | 10° |
| 2026-05-06 12:01 | 39.70271 | -8.48803 | 27097 ft | 449 kts | 10° |
| 2026-05-06 12:01 | 39.73337 | -8.47940 | 27644 ft | 453 kts | 10° |
| 2026-05-06 12:02 | 39.76427 | -8.47069 | 28206 ft | 456 kts | 10° |
| 2026-05-06 12:02 | 39.79566 | -8.46184 | 28781 ft | 460 kts | 10° |
| 2026-05-06 12:02 | 39.82703 | -8.45298 | 29354 ft | 464 kts | 10° |
| 2026-05-06 12:02 | 39.85876 | -8.44401 | 29941 ft | 468 kts | 10° |
| 2026-05-06 12:03 | 39.89069 | -8.43498 | 30445 ft | 472 kts | 10° |
| 2026-05-06 12:03 | 39.92288 | -8.42587 | 30950 ft | 476 kts | 10° |
| 2026-05-06 12:03 | 39.95548 | -8.41663 | 31438 ft | 480 kts | 10° |
| 2026-05-06 12:03 | 39.98821 | -8.40735 | 31938 ft | 483 kts | 10° |
| 2026-05-06 12:04 | 40.02113 | -8.39800 | 32387 ft | 487 kts | 10° |
| 2026-05-06 12:04 | 40.05437 | -8.38855 | 32812 ft | 490 kts | 10° |
| 2026-05-06 12:04 | 40.08781 | -8.37904 | 33239 ft | 494 kts | 10° |
| 2026-05-06 12:04 | 40.12159 | -8.36942 | 33653 ft | 497 kts | 10° |
| 2026-05-06 12:05 | 40.15518 | -8.35983 | 34200 ft | 496 kts | 9° |
| 2026-05-06 12:05 | 40.18848 | -8.35031 | 34708 ft | 495 kts | 9° |
| 2026-05-06 12:05 | 40.22215 | -8.34068 | 35185 ft | 495 kts | 9° |
| 2026-05-06 12:05 | 40.25590 | -8.33103 | 35601 ft | 496 kts | 9° |
| 2026-05-06 12:06 | 40.28968 | -8.32136 | 36056 ft | 496 kts | 9° |
| 2026-05-06 12:06 | 40.32349 | -8.31167 | 36520 ft | 496 kts | 9° |
| 2026-05-06 12:06 | 40.35724 | -8.30199 | 36989 ft | 496 kts | 9° |
| 2026-05-06 12:06 | 40.39102 | -8.29229 | 37446 ft | 497 kts | 9° |
| 2026-05-06 12:07 | 40.42479 | -8.28258 | 37860 ft | 497 kts | 9° |
| 2026-05-06 12:07 | 40.45882 | -8.27280 | 38008 ft | 499 kts | 9° |
| 2026-05-06 12:07 | 40.52617 | -8.25339 | 38003 ft | 499 kts | 9° |
| 2026-05-06 12:08 | 40.59403 | -8.23379 | 38001 ft | 499 kts | 9° |
| 2026-05-06 12:08 | 40.66193 | -8.21418 | 37993 ft | 499 kts | 9° |
| 2026-05-06 12:09 | 40.72978 | -8.19449 | 38008 ft | 499 kts | 9° |
| 2026-05-06 12:09 | 40.79749 | -8.17472 | 37986 ft | 495 kts | 12° |
| 2026-05-06 12:10 | 40.86359 | -8.15337 | 38002 ft | 484 kts | 13° |
| 2026-05-06 12:10 | 40.92942 | -8.13254 | 37999 ft | 493 kts | 12° |
| 2026-05-06 12:11 | 40.99672 | -8.11225 | 37999 ft | 500 kts | 12° |
| 2026-05-06 12:11 | 41.06455 | -8.09228 | 38015 ft | 499 kts | 11° |
| 2026-05-06 12:12 | 41.13243 | -8.07239 | 37998 ft | 498 kts | 11° |
| 2026-05-06 12:12 | 41.16590 | -8.06105 | 37992 ft | 495 kts | 24° |
| 2026-05-06 12:12 | 41.19876 | -8.04687 | 37980 ft | 497 kts | 25° |
| 2026-05-06 12:13 | 41.26518 | -8.01942 | 38000 ft | 501 kts | 22° |
| 2026-05-06 12:13 | 41.33315 | -7.99673 | 38008 ft | 505 kts | 19° |
| 2026-05-06 12:14 | 41.40161 | -7.97654 | 38005 ft | 504 kts | 18° |
| 2026-05-06 12:14 | 41.47023 | -7.95664 | 38001 ft | 503 kts | 18° |
| 2026-05-06 12:15 | 41.53854 | -7.93648 | 38006 ft | 503 kts | 19° |
| 2026-05-06 12:15 | 41.60682 | -7.91612 | 38005 ft | 503 kts | 19° |
| 2026-05-06 12:16 | 41.67522 | -7.89564 | 38004 ft | 503 kts | 19° |
| 2026-05-06 12:16 | 41.74305 | -7.87530 | 38005 ft | 503 kts | 19° |
| 2026-05-06 12:17 | 41.81111 | -7.85487 | 38012 ft | 502 kts | 19° |
| 2026-05-06 12:17 | 41.87949 | -7.83433 | 38015 ft | 503 kts | 19° |
| 2026-05-06 12:18 | 41.94780 | -7.81373 | 38024 ft | 503 kts | 19° |
| 2026-05-06 12:18 | 42.01591 | -7.79310 | 38022 ft | 502 kts | 19° |
| 2026-05-06 12:19 | 42.08370 | -7.77254 | 38026 ft | 502 kts | 19° |
| 2026-05-06 12:19 | 42.15183 | -7.75182 | 38038 ft | 502 kts | 19° |
| 2026-05-06 12:20 | 42.21997 | -7.73106 | 38027 ft | 502 kts | 19° |
| 2026-05-06 12:20 | 42.28808 | -7.71033 | 38022 ft | 501 kts | 19° |
| 2026-05-06 12:21 | 42.35614 | -7.68956 | 38029 ft | 501 kts | 19° |
| 2026-05-06 12:21 | 42.42424 | -7.66878 | 38032 ft | 501 kts | 19° |
| 2026-05-06 12:22 | 42.49227 | -7.64788 | 38033 ft | 501 kts | 19° |
| 2026-05-06 12:22 | 42.55999 | -7.62696 | 38033 ft | 501 kts | 19° |
| 2026-05-06 12:23 | 42.62814 | -7.60589 | 38023 ft | 501 kts | 19° |
| 2026-05-06 12:23 | 42.69607 | -7.58491 | 38016 ft | 501 kts | 19° |
| 2026-05-06 12:24 | 42.76416 | -7.56381 | 38026 ft | 501 kts | 19° |
| 2026-05-06 12:24 | 42.83208 | -7.54274 | 38030 ft | 501 kts | 19° |
| 2026-05-06 12:25 | 42.90004 | -7.52160 | 38030 ft | 501 kts | 19° |
| 2026-05-06 12:25 | 42.96805 | -7.50048 | 38034 ft | 500 kts | 19° |
| 2026-05-06 12:26 | 43.03602 | -7.47921 | 38037 ft | 500 kts | 19° |
| 2026-05-06 12:26 | 43.10342 | -7.45800 | 38034 ft | 500 kts | 20° |
| 2026-05-06 12:27 | 43.17130 | -7.43661 | 38035 ft | 500 kts | 20° |
| 2026-05-06 12:27 | 43.23931 | -7.41522 | 38039 ft | 500 kts | 19° |
| 2026-05-06 12:28 | 43.29561 | -7.39750 | 38035 ft | 500 kts | 20° |
| 2026-05-06 12:28 | 43.36341 | -7.37604 | 38041 ft | 500 kts | 20° |
| 2026-05-06 12:29 | 43.43099 | -7.35460 | 38043 ft | 499 kts | 20° |
| 2026-05-06 12:29 | 43.49880 | -7.33311 | 38047 ft | 499 kts | 20° |
| 2026-05-06 12:30 | 43.56653 | -7.31159 | 38049 ft | 499 kts | 20° |
| 2026-05-06 12:30 | 43.63416 | -7.29002 | 38054 ft | 499 kts | 20° |
| 2026-05-06 12:31 | 43.70184 | -7.26840 | 38053 ft | 499 kts | 20° |
| 2026-05-06 12:31 | 43.76919 | -7.24681 | 38046 ft | 499 kts | 20° |
| 2026-05-06 12:32 | 43.83680 | -7.22506 | 38054 ft | 498 kts | 20° |
| 2026-05-06 12:32 | 43.90443 | -7.20328 | 38046 ft | 498 kts | 20° |
| 2026-05-06 12:33 | 43.97191 | -7.18148 | 38047 ft | 498 kts | 20° |
| 2026-05-06 12:33 | 44.03940 | -7.15972 | 38048 ft | 497 kts | 20° |
| 2026-05-06 12:34 | 44.10638 | -7.13802 | 38047 ft | 497 kts | 20° |
| 2026-05-06 12:34 | 44.17380 | -7.11602 | 38048 ft | 497 kts | 20° |
| 2026-05-06 12:35 | 44.24120 | -7.09401 | 38048 ft | 497 kts | 20° |
| 2026-05-06 12:35 | 44.30869 | -7.07199 | 38048 ft | 497 kts | 20° |
| 2026-05-06 12:36 | 44.37606 | -7.04995 | 38047 ft | 497 kts | 20° |
| 2026-05-06 12:36 | 44.44297 | -7.02798 | 38048 ft | 497 kts | 20° |
| 2026-05-06 12:37 | 44.51042 | -7.00582 | 38045 ft | 497 kts | 20° |
| 2026-05-06 12:37 | 44.57777 | -6.98362 | 38045 ft | 497 kts | 20° |
| 2026-05-06 12:38 | 44.64509 | -6.96137 | 38045 ft | 497 kts | 20° |
| 2026-05-06 12:38 | 44.71234 | -6.93908 | 38045 ft | 497 kts | 20° |
| 2026-05-06 12:39 | 44.77963 | -6.91675 | 38042 ft | 497 kts | 20° |
| 2026-05-06 12:39 | 44.84111 | -6.88616 | 38050 ft | 486 kts | 37° |
| 2026-05-06 12:40 | 44.89766 | -6.83461 | 38031 ft | 490 kts | 44° |
| 2026-05-06 12:40 | 44.95289 | -6.77688 | 38040 ft | 496 kts | 45° |
| 2026-05-06 12:41 | 45.00872 | -6.71871 | 38048 ft | 501 kts | 44° |
| 2026-05-06 12:41 | 45.06535 | -6.66088 | 38043 ft | 503 kts | 43° |
| 2026-05-06 12:42 | 45.12220 | -6.60329 | 38043 ft | 502 kts | 43° |
| 2026-05-06 12:42 | 45.17905 | -6.54546 | 38049 ft | 502 kts | 43° |
| 2026-05-06 12:43 | 45.23528 | -6.48790 | 38039 ft | 502 kts | 43° |
| 2026-05-06 12:43 | 45.29207 | -6.42964 | 38044 ft | 502 kts | 43° |
| 2026-05-06 12:44 | 45.34865 | -6.37143 | 38044 ft | 502 kts | 44° |
| 2026-05-06 12:44 | 45.40522 | -6.31310 | 38043 ft | 502 kts | 44° |
| 2026-05-06 12:45 | 45.46128 | -6.25517 | 38044 ft | 502 kts | 44° |
| 2026-05-06 12:46 | 45.54598 | -6.16739 | 38044 ft | 501 kts | 44° |
| 2026-05-06 12:46 | 45.60246 | -6.10863 | 38042 ft | 502 kts | 44° |
| 2026-05-06 12:47 | 45.65885 | -6.04983 | 38038 ft | 502 kts | 44° |
| 2026-05-06 12:47 | 45.71520 | -5.99093 | 38037 ft | 502 kts | 44° |
| 2026-05-06 12:48 | 45.77160 | -5.93194 | 38034 ft | 502 kts | 44° |
| 2026-05-06 12:48 | 45.82796 | -5.87280 | 38043 ft | 501 kts | 44° |
| 2026-05-06 12:49 | 45.88385 | -5.81395 | 38032 ft | 501 kts | 44° |
| 2026-05-06 12:49 | 45.93994 | -5.75471 | 38034 ft | 501 kts | 44° |
| 2026-05-06 12:50 | 45.99617 | -5.69514 | 38036 ft | 501 kts | 44° |
| 2026-05-06 12:50 | 46.05228 | -5.63557 | 38034 ft | 501 kts | 44° |
| 2026-05-06 12:51 | 46.10835 | -5.57589 | 38036 ft | 501 kts | 44° |
| 2026-05-06 12:51 | 46.16414 | -5.51635 | 38031 ft | 500 kts | 44° |
| 2026-05-06 12:52 | 46.22006 | -5.45652 | 38027 ft | 500 kts | 44° |
| 2026-05-06 12:52 | 46.27599 | -5.39652 | 38025 ft | 500 kts | 44° |
| 2026-05-06 12:53 | 46.33184 | -5.33646 | 38025 ft | 500 kts | 44° |
| 2026-05-06 12:53 | 46.38770 | -5.27622 | 38021 ft | 500 kts | 44° |
| 2026-05-06 12:54 | 46.44362 | -5.21574 | 38024 ft | 500 kts | 44° |
| 2026-05-06 12:54 | 46.49931 | -5.15537 | 38019 ft | 500 kts | 44° |
| 2026-05-06 12:55 | 46.55503 | -5.09482 | 38021 ft | 500 kts | 44° |
| 2026-05-06 12:55 | 46.61042 | -5.03445 | 38020 ft | 500 kts | 44° |
| 2026-05-06 12:56 | 46.66608 | -4.97363 | 38015 ft | 500 kts | 44° |
| 2026-05-06 12:56 | 46.72175 | -4.91265 | 38012 ft | 500 kts | 44° |
| 2026-05-06 12:57 | 46.77737 | -4.85155 | 38011 ft | 500 kts | 44° |
| 2026-05-06 12:57 | 46.83289 | -4.79042 | 38013 ft | 500 kts | 44° |
| 2026-05-06 12:58 | 46.88798 | -4.72957 | 37993 ft | 500 kts | 44° |
| 2026-05-06 12:58 | 46.94342 | -4.66818 | 38015 ft | 500 kts | 45° |
| 2026-05-06 12:59 | 46.99890 | -4.60661 | 37993 ft | 500 kts | 44° |
| 2026-05-06 12:59 | 47.05442 | -4.54483 | 37990 ft | 500 kts | 44° |
| 2026-05-06 13:00 | 47.10923 | -4.48360 | 38010 ft | 500 kts | 45° |
| 2026-05-06 13:00 | 47.16369 | -4.42243 | 38003 ft | 500 kts | 45° |
| 2026-05-06 13:01 | 47.21907 | -4.36025 | 37978 ft | 501 kts | 45° |
| 2026-05-06 13:01 | 47.27451 | -4.29796 | 37977 ft | 501 kts | 45° |
| 2026-05-06 13:02 | 47.32963 | -4.23578 | 37997 ft | 500 kts | 45° |
| 2026-05-06 13:02 | 47.38477 | -4.17330 | 37996 ft | 501 kts | 45° |
| 2026-05-06 13:03 | 47.44004 | -4.11057 | 37978 ft | 501 kts | 45° |
| 2026-05-06 13:03 | 47.49509 | -4.04799 | 37974 ft | 501 kts | 45° |
| 2026-05-06 13:04 | 47.55029 | -3.98506 | 37967 ft | 501 kts | 45° |
| 2026-05-06 13:04 | 47.60525 | -3.92218 | 37962 ft | 501 kts | 45° |
| 2026-05-06 13:05 | 47.66047 | -3.85885 | 37962 ft | 501 kts | 45° |
| 2026-05-06 13:05 | 47.71560 | -3.79546 | 37956 ft | 501 kts | 45° |
| 2026-05-06 13:06 | 47.77021 | -3.73252 | 37964 ft | 500 kts | 45° |
| 2026-05-06 13:06 | 47.82547 | -3.66867 | 37957 ft | 500 kts | 46° |
| 2026-05-06 13:07 | 47.88025 | -3.60523 | 37957 ft | 500 kts | 45° |
| 2026-05-06 13:07 | 47.93512 | -3.54149 | 37960 ft | 500 kts | 46° |
| 2026-05-06 13:08 | 47.98996 | -3.47750 | 37953 ft | 500 kts | 46° |
| 2026-05-06 13:08 | 48.04444 | -3.41382 | 37962 ft | 500 kts | 46° |
| 2026-05-06 13:09 | 48.09931 | -3.34957 | 37966 ft | 500 kts | 46° |
| 2026-05-06 13:09 | 48.15403 | -3.28530 | 37975 ft | 500 kts | 46° |
| 2026-05-06 13:10 | 48.20868 | -3.22083 | 37967 ft | 500 kts | 46° |
| 2026-05-06 13:10 | 48.26333 | -3.15618 | 37965 ft | 500 kts | 46° |
| 2026-05-06 13:11 | 48.31792 | -3.09152 | 37973 ft | 500 kts | 46° |
| 2026-05-06 13:11 | 48.37215 | -3.02708 | 37966 ft | 500 kts | 46° |
| 2026-05-06 13:12 | 48.42671 | -2.96205 | 37969 ft | 499 kts | 46° |
| 2026-05-06 13:12 | 48.48113 | -2.89699 | 37970 ft | 500 kts | 46° |
| 2026-05-06 13:13 | 48.53562 | -2.83164 | 37968 ft | 500 kts | 46° |
| 2026-05-06 13:13 | 48.58980 | -2.76650 | 37964 ft | 500 kts | 46° |
| 2026-05-06 13:14 | 48.64408 | -2.70108 | 37977 ft | 500 kts | 46° |
| 2026-05-06 13:14 | 48.68935 | -2.64635 | 37977 ft | 500 kts | 46° |
| 2026-05-06 13:15 | 48.74372 | -2.58047 | 37976 ft | 500 kts | 47° |
| 2026-05-06 13:15 | 48.79807 | -2.51500 | 37973 ft | 500 kts | 46° |
| 2026-05-06 13:16 | 48.85339 | -2.45065 | 37979 ft | 500 kts | 45° |
| 2026-05-06 13:16 | 48.90885 | -2.38627 | 37981 ft | 500 kts | 45° |
| 2026-05-06 13:17 | 48.96399 | -2.32172 | 37988 ft | 499 kts | 45° |
| 2026-05-06 13:17 | 49.01900 | -2.25697 | 37982 ft | 499 kts | 46° |
| 2026-05-06 13:18 | 49.07391 | -2.19200 | 37997 ft | 500 kts | 46° |
| 2026-05-06 13:18 | 49.12873 | -2.12695 | 37993 ft | 500 kts | 46° |
| 2026-05-06 13:19 | 49.18339 | -2.06198 | 37991 ft | 500 kts | 46° |
| 2026-05-06 13:19 | 49.24061 | -2.00119 | 37993 ft | 503 kts | 38° |
| 2026-05-06 13:20 | 49.30179 | -1.94929 | 37985 ft | 501 kts | 36° |
| 2026-05-06 13:20 | 49.36319 | -1.89882 | 37985 ft | 499 kts | 36° |
| 2026-05-06 13:21 | 49.42411 | -1.84754 | 37987 ft | 499 kts | 37° |
| 2026-05-06 13:21 | 49.48481 | -1.79565 | 37990 ft | 499 kts | 37° |
| 2026-05-06 13:22 | 49.54521 | -1.74377 | 37990 ft | 500 kts | 37° |
| 2026-05-06 13:22 | 49.60908 | -1.70063 | 37993 ft | 502 kts | 25° |
| 2026-05-06 13:23 | 49.67726 | -1.67712 | 37992 ft | 503 kts | 13° |
| 2026-05-06 13:23 | 49.74710 | -1.67445 | 37996 ft | 502 kts | 2° |
| 2026-05-06 13:24 | 49.81571 | -1.69292 | 37993 ft | 500 kts | 351° |
| 2026-05-06 13:24 | 49.88224 | -1.72050 | 38321 ft | 483 kts | 9° |
| 2026-05-06 13:24 | 49.91459 | -1.71219 | 38230 ft | 470 kts | 26° |
| 2026-05-06 13:25 | 49.94604 | -1.69682 | 37916 ft | 477 kts | 27° |
| 2026-05-06 13:25 | 50.00914 | -1.66520 | 38002 ft | 482 kts | 30° |
| 2026-05-06 13:25 | 50.04093 | -1.64722 | 37693 ft | 487 kts | 26° |
| 2026-05-06 13:26 | 50.07316 | -1.63340 | 36985 ft | 478 kts | 21° |
| 2026-05-06 13:26 | 50.10530 | -1.62132 | 36275 ft | 470 kts | 22° |
| 2026-05-06 13:26 | 50.13658 | -1.60845 | 35569 ft | 463 kts | 23° |
| 2026-05-06 13:26 | 50.16750 | -1.59475 | 34872 ft | 462 kts | 24° |
| 2026-05-06 13:27 | 50.19858 | -1.58035 | 34063 ft | 462 kts | 24° |
| 2026-05-06 13:27 | 50.22928 | -1.56593 | 33167 ft | 462 kts | 24° |
| 2026-05-06 13:27 | 50.26021 | -1.55130 | 32314 ft | 464 kts | 23° |
| 2026-05-06 13:27 | 50.29118 | -1.53667 | 31460 ft | 466 kts | 22° |
| 2026-05-06 13:28 | 50.32224 | -1.52210 | 30593 ft | 469 kts | 21° |
| 2026-05-06 13:28 | 50.35350 | -1.50751 | 29592 ft | 470 kts | 20° |
| 2026-05-06 13:28 | 50.38494 | -1.49295 | 28654 ft | 468 kts | 20° |
| 2026-05-06 13:28 | 50.41580 | -1.47856 | 27999 ft | 458 kts | 21° |
| 2026-05-06 13:29 | 50.44581 | -1.46403 | 27350 ft | 455 kts | 21° |
| 2026-05-06 13:29 | 50.47608 | -1.44920 | 26708 ft | 454 kts | 21° |
| 2026-05-06 13:29 | 50.50611 | -1.43456 | 26036 ft | 450 kts | 20° |
| 2026-05-06 13:29 | 50.53562 | -1.41863 | 25394 ft | 446 kts | 26° |
| 2026-05-06 13:30 | 50.56312 | -1.39714 | 24709 ft | 440 kts | 32° |
| 2026-05-06 13:30 | 50.59001 | -1.37393 | 24076 ft | 439 kts | 32° |
| 2026-05-06 13:30 | 50.61672 | -1.35083 | 23404 ft | 437 kts | 32° |
| 2026-05-06 13:30 | 50.64328 | -1.32802 | 22713 ft | 430 kts | 32° |
| 2026-05-06 13:31 | 50.66932 | -1.30551 | 22064 ft | 425 kts | 32° |
| 2026-05-06 13:31 | 50.69527 | -1.28296 | 21436 ft | 424 kts | 32° |
| 2026-05-06 13:31 | 50.72108 | -1.26074 | 20792 ft | 421 kts | 31° |
| 2026-05-06 13:31 | 50.74663 | -1.23879 | 20157 ft | 415 kts | 32° |
| 2026-05-06 13:32 | 50.77178 | -1.21686 | 19515 ft | 408 kts | 33° |
| 2026-05-06 13:32 | 50.79550 | -1.19274 | 18887 ft | 406 kts | 37° |
| 2026-05-06 13:32 | 50.81891 | -1.16771 | 18242 ft | 404 kts | 37° |
| 2026-05-06 13:32 | 50.84192 | -1.14353 | 17560 ft | 399 kts | 36° |
| 2026-05-06 13:33 | 50.86520 | -1.11927 | 16896 ft | 392 kts | 36° |
| 2026-05-06 13:33 | 50.88790 | -1.09548 | 16257 ft | 390 kts | 36° |
| 2026-05-06 13:33 | 50.91052 | -1.07198 | 15618 ft | 388 kts | 36° |
| 2026-05-06 13:33 | 50.93260 | -1.04917 | 15004 ft | 382 kts | 35° |
| 2026-05-06 13:34 | 50.95469 | -1.02622 | 14348 ft | 376 kts | 36° |
| 2026-05-06 13:34 | 50.97650 | -1.00344 | 13717 ft | 374 kts | 36° |
| 2026-05-06 13:34 | 50.99795 | -0.98035 | 13035 ft | 370 kts | 40° |
| 2026-05-06 13:34 | 51.01644 | -0.95221 | 12601 ft | 371 kts | 50° |
| 2026-05-06 13:35 | 51.03391 | -0.92120 | 12412 ft | 375 kts | 50° |
| 2026-05-06 13:35 | 51.05098 | -0.89091 | 12173 ft | 356 kts | 51° |
| 2026-05-06 13:35 | 51.06672 | -0.86182 | 11898 ft | 337 kts | 55° |
| 2026-05-06 13:35 | 51.08106 | -0.83422 | 11583 ft | 319 kts | 57° |
| 2026-05-06 13:36 | 51.09494 | -0.80744 | 11286 ft | 300 kts | 58° |
| 2026-05-06 13:36 | 51.10803 | -0.78235 | 11039 ft | 294 kts | 59° |
| 2026-05-06 13:36 | 51.12100 | -0.75750 | 10776 ft | 295 kts | 57° |
| 2026-05-06 13:36 | 51.13436 | -0.73270 | 10440 ft | 288 kts | 57° |
| 2026-05-06 13:37 | 51.14714 | -0.70873 | 10284 ft | 285 kts | 58° |
| 2026-05-06 13:37 | 51.16103 | -0.68611 | 9424 ft | 282 kts | 47° |
| 2026-05-06 13:37 | 51.17728 | -0.66904 | 8488 ft | 284 kts | 33° |
| 2026-05-06 13:37 | 51.19566 | -0.65860 | 7781 ft | 277 kts | 20° |
| 2026-05-06 13:38 | 51.21455 | -0.65548 | 7084 ft | 271 kts | 7° |
| 2026-05-06 13:38 | 51.23298 | -0.65984 | 6471 ft | 263 kts | 352° |
| 2026-05-06 13:38 | 51.24962 | -0.67076 | 6096 ft | 258 kts | 346° |
| 2026-05-06 13:38 | 51.26610 | -0.68153 | 5826 ft | 255 kts | 352° |
| 2026-05-06 13:39 | 51.28309 | -0.68950 | 5446 ft | 254 kts | 357° |
| 2026-05-06 13:39 | 51.30039 | -0.69562 | 5121 ft | 255 kts | 360° |
| 2026-05-06 13:39 | 51.31779 | -0.70070 | 4803 ft | 254 kts | 1° |
| 2026-05-06 13:39 | 51.33531 | -0.70522 | 4490 ft | 255 kts | 2° |
| 2026-05-06 13:40 | 51.35282 | -0.70940 | 4175 ft | 253 kts | 3° |
| 2026-05-06 13:40 | 51.36938 | -0.71359 | 4036 ft | 229 kts | 3° |
| 2026-05-06 13:40 | 51.38430 | -0.71781 | 3931 ft | 207 kts | 2° |
| 2026-05-06 13:40 | 51.39773 | -0.72203 | 3809 ft | 186 kts | 1° |
| 2026-05-06 13:41 | 51.40963 | -0.72601 | 3698 ft | 165 kts | 2° |
| 2026-05-06 13:41 | 51.42002 | -0.72969 | 3595 ft | 140 kts | 1° |
| 2026-05-06 13:41 | 51.42886 | -0.73300 | 3523 ft | 126 kts | 2° |
| 2026-05-06 13:41 | 51.43742 | -0.73581 | 3463 ft | 127 kts | 4° |
| 2026-05-06 13:42 | 51.44617 | -0.73833 | 3394 ft | 128 kts | 5° |
| 2026-05-06 13:42 | 51.45497 | -0.74063 | 3313 ft | 128 kts | 5° |
| 2026-05-06 13:42 | 51.46371 | -0.74091 | 3281 ft | 123 kts | 25° |
| 2026-05-06 13:42 | 51.47074 | -0.73365 | 3073 ft | 123 kts | 60° |
| 2026-05-06 13:43 | 51.47361 | -0.72075 | 2880 ft | 129 kts | 94° |
| 2026-05-06 13:43 | 51.47353 | -0.70613 | 2714 ft | 132 kts | 98° |
| 2026-05-06 13:43 | 51.47350 | -0.69149 | 2556 ft | 132 kts | 96° |
| 2026-05-06 13:43 | 51.47470 | -0.67683 | 2495 ft | 134 kts | 91° |
| 2026-05-06 13:44 | 51.47473 | -0.66209 | 2301 ft | 131 kts | 101° |
| 2026-05-06 13:44 | 51.47425 | -0.64745 | 2138 ft | 132 kts | 96° |
| 2026-05-06 13:44 | 51.47452 | -0.63256 | 1953 ft | 134 kts | 94° |
| 2026-05-06 13:44 | 51.47498 | -0.61778 | 1778 ft | 132 kts | 94° |
| 2026-05-06 13:45 | 51.47532 | -0.60320 | 1592 ft | 130 kts | 96° |
| 2026-05-06 13:45 | 51.47580 | -0.57441 | 1254 ft | 130 kts | 97° |
| 2026-05-06 13:45 | 51.47599 | -0.56004 | 1057 ft | 128 kts | 95° |
| 2026-05-06 13:46 | 51.47621 | -0.54577 | 888 ft | 128 kts | 97° |
| 2026-05-06 13:46 | 51.47632 | -0.53180 | 709 ft | 124 kts | 95° |
| 2026-05-06 13:46 | 51.47704 | -0.51803 | 525 ft | 123 kts | 95° |
| 2026-05-06 13:46 | 51.47734 | -0.50428 | 395 ft | 124 kts | 98° |
| 2026-05-06 13:47 | 51.47741 | -0.49035 | 184 ft | 122 kts | 97° |
| 2026-05-06 13:47 | 51.47745 | -0.47703 | 94 ft | 115 kts | 96° |
| 2026-05-06 13:47 | 51.47755 | -0.46641 | 102 ft | 63 kts | 89° |
| 2026-05-06 13:47 | 51.47746 | -0.46227 | 95 ft | 24 kts | 113° |
| 2026-05-06 13:48 | 51.47661 | -0.46102 | 95 ft | 0 kts | 143° |